createdAt,value
2022-09-15T00:02:46.541Z,0.15
2022-09-15T00:05:34.636Z,0.30
2022-09-15T00:08:26.147Z,0.10
2022-09-15T00:11:20.767Z,0.20
2022-09-15T00:14:10.263Z,0.20
2022-09-15T00:16:57.566Z,0.25
2022-09-15T00:19:44.936Z,0.30
2022-09-15T00:22:32.100Z,0.23
2022-09-15T00:25:20.612Z,0.20
2022-09-15T00:28:07.384Z,0.20
2022-09-15T00:30:55.784Z,0.20
2022-09-15T00:33:42.826Z,0.30
2022-09-15T00:36:30.080Z,0.47
2022-09-15T00:39:17.006Z,0.20
2022-09-15T00:42:06.805Z,0.10
2022-09-15T00:44:56.267Z,0.10
2022-09-15T00:47:43.054Z,0.13
2022-09-15T00:50:29.986Z,0.35
2022-09-15T00:53:21.336Z,0.10
2022-09-15T00:56:09.552Z,0.30
2022-09-15T00:59:01.313Z,0.10
2022-09-15T01:01:48.336Z,0.30
2022-09-15T01:04:35.241Z,0.10
2022-09-15T01:07:24.109Z,0.20
2022-09-15T01:10:14.212Z,0.10
2022-09-15T01:13:02.831Z,0.20
2022-09-15T01:15:55.539Z,0.17
2022-09-15T01:18:46.707Z,0.20
2022-09-15T01:21:38.450Z,0.10
2022-09-15T01:24:39.894Z,0.10
2022-09-15T01:27:42.505Z,0.10
2022-09-15T01:30:34.772Z,0.10
2022-09-15T01:33:26.702Z,0.20
2022-09-15T01:36:16.027Z,0.10
2022-09-15T01:39:06.114Z,0.10
2022-09-15T01:41:56.398Z,0.20
2022-09-15T01:44:44.274Z,0.10
2022-09-15T01:47:32.644Z,0.30
2022-09-15T01:50:22.320Z,0.13
2022-09-15T01:53:11.681Z,0.15
2022-09-15T01:56:01.705Z,0.10
2022-09-15T01:58:51.154Z,0.22
2022-09-15T02:01:47.925Z,0.10
2022-09-15T02:04:39.940Z,0.22
2022-09-15T02:07:31.900Z,0.10
2022-09-15T02:10:22.065Z,0.30
2022-09-15T02:13:17.075Z,0.40
2022-09-15T02:16:04.889Z,0.10
2022-09-15T02:18:58.679Z,0.30
2022-09-15T02:21:53.979Z,0.17
2022-09-15T02:24:42.781Z,0.70
2022-09-15T02:27:31.709Z,0.10
2022-09-15T02:30:19.642Z,0.03
2022-09-15T02:33:08.890Z,0.10
2022-09-15T02:35:56.287Z,0.20
2022-09-15T02:38:46.870Z,0.25
2022-09-15T02:41:34.987Z,0.22
2022-09-15T02:44:22.119Z,0.10
2022-09-15T02:47:09.188Z,0.45
2022-09-15T02:49:57.136Z,0.03
2022-09-15T02:52:44.396Z,0.20
2022-09-15T02:55:33.141Z,0.20
2022-09-15T02:58:19.965Z,0.10
2022-09-15T03:01:08.236Z,0.22
2022-09-15T03:03:55.277Z,0.25
2022-09-15T03:06:43.556Z,0.28
2022-09-15T03:09:30.627Z,0.20
2022-09-15T03:12:18.958Z,0.15
2022-09-15T03:15:06.253Z,0.10
2022-09-15T03:17:54.316Z,0.10
2022-09-15T03:20:41.211Z,0.10
2022-09-15T03:23:28.818Z,0.20
2022-09-15T03:26:16.397Z,0.15
2022-09-15T03:29:04.618Z,0.10
2022-09-15T03:31:51.642Z,0.30
2022-09-15T03:34:38.698Z,0.20
2022-09-15T03:37:25.763Z,0.20
2022-09-15T03:40:12.876Z,0.10
2022-09-15T03:43:00.820Z,0.25
2022-09-15T03:45:49.162Z,0.22
2022-09-15T03:48:37.302Z,0.20
2022-09-15T03:51:28.002Z,0.10
2022-09-15T03:54:14.746Z,0.20
2022-09-15T03:57:01.622Z,0.17
2022-09-15T03:59:48.779Z,0.30
2022-09-15T04:02:37.367Z,0.10
2022-09-15T04:05:24.189Z,0.20
2022-09-15T04:08:14.556Z,0.10
2022-09-15T04:11:05.703Z,0.10
2022-09-15T04:13:54.205Z,0.10
2022-09-15T04:16:41.158Z,0.10
2022-09-15T04:19:29.492Z,0.08
2022-09-15T04:22:17.984Z,0.00
2022-09-15T04:25:05.577Z,0.10
2022-09-15T04:27:52.895Z,0.13
2022-09-15T04:30:39.846Z,0.20
2022-09-15T04:33:26.724Z,0.10
2022-09-15T04:36:19.346Z,0.10
2022-09-15T04:39:07.146Z,0.10
2022-09-15T04:41:54.737Z,0.20
2022-09-15T04:44:44.579Z,0.00
2022-09-15T04:47:31.882Z,0.20
2022-09-15T04:50:19.222Z,0.10
2022-09-15T04:53:08.852Z,0.10
2022-09-15T04:55:55.830Z,0.10
2022-09-15T04:58:43.493Z,0.10
2022-09-15T05:01:31.865Z,0.10
2022-09-15T05:04:19.111Z,0.10
2022-09-15T05:07:06.258Z,0.20
2022-09-15T05:09:54.642Z,0.10
2022-09-15T05:12:44.626Z,0.10
2022-09-15T05:15:32.189Z,0.10
2022-09-15T05:18:19.254Z,0.20
2022-09-15T05:21:07.011Z,0.10
2022-09-15T05:23:54.278Z,0.17
2022-09-15T05:26:42.677Z,0.30
2022-09-15T05:29:29.621Z,0.20
2022-09-15T05:32:16.751Z,0.10
2022-09-15T05:35:03.834Z,0.10
2022-09-15T05:37:52.977Z,0.10
2022-09-15T05:40:40.130Z,0.10
2022-09-15T05:43:28.538Z,0.08
2022-09-15T05:46:16.344Z,0.10
2022-09-15T05:49:03.491Z,0.10
2022-09-15T05:51:50.623Z,0.00
2022-09-15T05:54:38.819Z,0.17
2022-09-15T05:57:25.764Z,0.13
2022-09-15T06:00:15.072Z,0.30
2022-09-15T06:03:02.117Z,0.10
2022-09-15T06:05:49.091Z,0.28
2022-09-15T06:08:37.207Z,0.10
2022-09-15T06:11:25.469Z,0.05
2022-09-15T06:14:14.534Z,0.20
2022-09-15T06:17:02.866Z,0.13
2022-09-15T06:19:50.072Z,0.10
2022-09-15T06:22:37.093Z,0.00
2022-09-15T06:25:24.045Z,0.10
2022-09-15T06:28:14.430Z,0.10
2022-09-15T06:31:01.693Z,0.15
2022-09-15T06:33:54.410Z,0.10
2022-09-15T06:36:41.687Z,0.10
2022-09-15T06:39:28.986Z,0.10
2022-09-15T06:42:18.666Z,0.40
2022-09-15T06:45:08.000Z,0.10
2022-09-15T06:48:20.329Z,0.10
2022-09-15T06:51:04.253Z,0.30
2022-09-15T06:53:51.448Z,0.00
2022-09-15T06:56:38.581Z,0.10
2022-09-15T06:59:25.659Z,0.10
2022-09-15T07:02:12.587Z,0.03
2022-09-15T07:04:59.598Z,0.10
2022-09-15T07:07:48.133Z,0.00
2022-09-15T07:10:34.968Z,0.28
2022-09-15T07:13:21.851Z,0.05
2022-09-15T07:16:09.984Z,0.10
2022-09-15T07:18:57.873Z,0.10
2022-09-15T07:21:44.857Z,0.10
2022-09-15T07:24:34.671Z,0.17
2022-09-15T07:27:24.950Z,0.10
2022-09-15T07:30:13.788Z,0.10
2022-09-15T07:33:01.178Z,0.10
2022-09-15T07:35:48.307Z,0.10
2022-09-15T07:38:35.599Z,0.30
2022-09-15T07:41:25.053Z,0.10
2022-09-15T07:44:13.253Z,0.10
2022-09-15T07:47:00.226Z,0.32
2022-09-15T07:49:47.550Z,0.10
2022-09-15T07:52:34.632Z,0.32
2022-09-15T07:55:22.027Z,0.10
2022-09-15T07:58:10.462Z,0.20
2022-09-15T08:01:02.870Z,0.00
2022-09-15T08:03:50.935Z,0.10
2022-09-15T08:06:42.893Z,0.40
2022-09-15T08:09:29.735Z,0.10
2022-09-15T08:12:16.826Z,0.45
2022-09-15T08:15:05.234Z,0.40
2022-09-15T08:17:52.684Z,0.30
2022-09-15T08:20:40.366Z,0.25
2022-09-15T08:23:29.640Z,0.00
2022-09-15T08:26:16.669Z,0.20
2022-09-15T08:29:04.025Z,0.22
2022-09-15T08:31:52.501Z,0.20
2022-09-15T08:34:39.330Z,0.28
2022-09-15T08:37:26.328Z,0.20
2022-09-15T08:40:17.695Z,0.30
2022-09-15T08:43:07.658Z,0.20
2022-09-15T08:45:57.468Z,0.30
2022-09-15T08:48:47.767Z,0.20
2022-09-15T08:51:38.455Z,0.55
2022-09-15T08:54:27.201Z,0.22
2022-09-15T08:57:16.918Z,0.15
2022-09-15T09:00:06.766Z,0.30
2022-09-15T09:03:05.906Z,0.10
2022-09-15T09:05:59.937Z,0.30
2022-09-15T09:08:57.219Z,0.20
2022-09-15T09:11:53.875Z,0.10
2022-09-15T09:14:48.674Z,0.20
2022-09-15T09:17:46.934Z,0.15
2022-09-15T09:20:41.263Z,0.20
2022-09-15T09:23:31.229Z,0.10
2022-09-15T09:26:18.387Z,0.32
2022-09-15T09:29:12.128Z,0.15
2022-09-15T09:32:00.239Z,0.20
2022-09-15T09:34:50.253Z,0.40
2022-09-15T09:37:36.967Z,0.20
2022-09-15T09:40:25.634Z,0.40
2022-09-15T09:43:12.944Z,0.20
2022-09-15T09:46:00.632Z,0.30
2022-09-15T09:48:50.198Z,0.22
2022-09-15T09:51:39.100Z,0.35
2022-09-15T09:54:28.621Z,0.10
2022-09-15T09:57:30.410Z,0.40
2022-09-15T10:00:32.279Z,0.40
2022-09-15T10:03:20.596Z,0.28
2022-09-15T10:06:08.701Z,0.20
2022-09-15T10:08:57.956Z,0.50
2022-09-15T10:11:46.491Z,0.40
2022-09-15T10:14:36.239Z,0.23
2022-09-15T10:17:24.935Z,0.20
2022-09-15T10:20:34.772Z,0.73
2022-09-15T10:23:29.133Z,0.32
2022-09-15T10:26:33.079Z,0.30
2022-09-15T10:29:20.981Z,0.60
2022-09-15T10:32:22.962Z,0.50
2022-09-15T10:35:13.217Z,0.45
2022-09-15T10:38:05.856Z,0.25
2022-09-15T10:40:57.752Z,0.80
2022-09-15T10:43:48.997Z,0.32
2022-09-15T10:46:41.529Z,0.20
2022-09-15T10:49:35.245Z,0.40
2022-09-15T10:52:32.066Z,0.30
2022-09-15T10:55:48.575Z,0.40
2022-09-15T10:58:48.142Z,0.30
2022-09-15T11:01:43.026Z,0.22
2022-09-15T11:04:42.996Z,0.60
2022-09-15T11:07:33.065Z,0.40
2022-09-15T11:10:21.719Z,0.40
2022-09-15T11:13:14.248Z,0.20
2022-09-15T11:16:04.873Z,0.30
2022-09-15T11:18:59.072Z,0.35
2022-09-15T11:21:49.198Z,0.47
2022-09-15T11:24:43.191Z,0.13
2022-09-15T11:27:32.135Z,0.20
2022-09-15T11:30:20.121Z,0.28
2022-09-15T11:33:11.530Z,0.40
2022-09-15T11:36:02.471Z,0.10
2022-09-15T11:38:53.682Z,0.80
2022-09-15T11:41:43.211Z,0.20
2022-09-15T11:44:33.497Z,0.83
2022-09-15T11:47:24.163Z,0.10
2022-09-15T11:50:16.871Z,0.15
2022-09-15T11:53:12.113Z,0.50
2022-09-15T11:56:02.913Z,0.20
2022-09-15T11:58:56.160Z,0.80
2022-09-15T12:01:45.837Z,0.40
2022-09-15T12:04:34.570Z,0.40
2022-09-15T12:07:28.900Z,0.30
2022-09-15T12:10:17.841Z,0.40
2022-09-15T12:13:07.750Z,0.20
2022-09-15T12:15:55.444Z,0.45
2022-09-15T12:18:46.874Z,0.20
2022-09-15T12:21:37.221Z,0.43
2022-09-15T12:24:30.404Z,0.60
2022-09-15T12:27:18.720Z,0.30
2022-09-15T12:30:10.445Z,0.40
2022-09-15T12:32:58.135Z,0.40
2022-09-15T12:35:45.774Z,0.52
2022-09-15T12:38:33.271Z,0.30
2022-09-15T12:41:21.212Z,0.20
2022-09-15T12:44:13.724Z,0.30
2022-09-15T12:47:02.894Z,0.17
2022-09-15T12:49:51.641Z,0.25
2022-09-15T12:52:46.163Z,0.70
2022-09-15T12:55:35.576Z,0.20
2022-09-15T12:58:27.874Z,0.20
2022-09-15T13:01:35.460Z,0.28
2022-09-15T13:04:28.810Z,0.20
2022-09-15T13:07:35.860Z,0.30
2022-09-15T13:10:44.098Z,0.20
2022-09-15T13:13:33.450Z,0.20
2022-09-15T13:16:23.674Z,0.20
2022-09-15T13:19:13.988Z,0.20
2022-09-15T13:22:05.130Z,0.70
2022-09-15T13:24:59.108Z,2.08
2022-09-15T13:27:49.795Z,0.32
2022-09-15T13:30:42.715Z,0.32
2022-09-15T13:40:20.456Z,0.22
2022-09-15T13:43:18.583Z,0.15
2022-09-15T13:46:08.665Z,0.30
2022-09-15T13:49:00.312Z,0.20
2022-09-15T13:51:53.457Z,0.40
2022-09-15T13:55:01.022Z,0.90
2022-09-15T14:01:01.895Z,0.08
2022-09-15T14:03:50.673Z,0.20
2022-09-15T14:06:39.001Z,0.30
2022-09-15T14:09:28.417Z,0.30
2022-09-15T14:12:16.842Z,0.15
2022-09-15T14:15:07.390Z,0.13
2022-09-15T14:17:54.577Z,0.40
2022-09-15T14:20:41.862Z,0.10
2022-09-15T14:23:29.518Z,0.20
2022-09-15T14:26:18.098Z,0.20
2022-09-15T14:29:05.749Z,0.20
2022-09-15T14:31:54.312Z,0.17
2022-09-15T14:34:42.256Z,0.50
2022-09-15T14:37:32.103Z,0.10
2022-09-15T14:40:20.427Z,0.40
2022-09-15T14:43:24.361Z,0.23
2022-09-15T14:46:11.990Z,0.15
2022-09-15T14:49:11.063Z,0.10
2022-09-15T14:51:57.956Z,0.20
2022-09-15T14:54:45.025Z,0.43
2022-09-15T14:57:33.615Z,0.25
2022-09-15T15:00:22.445Z,0.00
2022-09-15T15:03:18.590Z,0.20
2022-09-15T15:06:28.367Z,0.10
2022-09-15T15:09:21.630Z,0.10
2022-09-15T15:12:12.958Z,0.32
2022-09-15T15:15:00.676Z,0.40
2022-09-15T15:17:49.670Z,0.33
2022-09-15T15:20:36.863Z,0.30
2022-09-15T15:23:26.457Z,0.20
2022-09-15T15:26:27.206Z,0.30
2022-09-15T15:29:29.345Z,0.55
2022-09-15T15:32:17.088Z,0.25
2022-09-15T15:35:04.524Z,0.20
2022-09-15T15:37:52.159Z,0.10
2022-09-15T15:40:41.694Z,0.20
2022-09-15T15:43:28.925Z,0.10
2022-09-15T15:46:38.769Z,0.35
2022-09-15T15:49:27.429Z,0.17
2022-09-15T15:52:15.467Z,0.10
2022-09-15T15:55:02.568Z,0.20
2022-09-15T15:57:51.728Z,0.30
2022-09-15T16:00:41.045Z,0.32
2022-09-15T16:03:28.790Z,0.25
2022-09-15T16:06:16.006Z,0.20
2022-09-15T16:09:06.732Z,0.20
2022-09-15T16:11:54.032Z,0.35
2022-09-15T16:14:46.259Z,0.30
2022-09-15T16:18:15.069Z,0.30
2022-09-15T16:21:08.506Z,0.20
2022-09-15T16:23:56.284Z,0.20
2022-09-15T16:26:43.540Z,0.30
2022-09-15T16:29:36.211Z,0.10
2022-09-15T16:32:24.815Z,0.40
2022-09-15T16:35:19.171Z,0.20
2022-09-15T16:38:06.153Z,0.32
2022-09-15T16:40:56.865Z,1.00
2022-09-15T16:43:43.646Z,1.17
2022-09-15T16:46:31.213Z,1.60
2022-09-15T16:49:22.132Z,2.30
2022-09-15T16:52:09.978Z,1.70
2022-09-15T16:54:57.770Z,2.38
2022-09-15T16:57:44.407Z,2.05
2022-09-15T17:00:35.517Z,1.88
2022-09-15T17:03:24.784Z,1.00
2022-09-15T17:06:14.491Z,0.60
2022-09-15T17:09:01.543Z,0.40
2022-09-15T17:11:48.355Z,0.10
2022-09-15T17:14:35.466Z,0.20
2022-09-15T17:17:25.679Z,0.20
2022-09-15T17:20:13.114Z,0.10
2022-09-15T17:23:02.178Z,0.15
2022-09-15T17:25:53.044Z,0.20
2022-09-15T17:28:40.871Z,0.15
2022-09-15T17:31:28.000Z,0.10
2022-09-15T17:34:16.329Z,0.10
2022-09-15T17:37:04.211Z,0.20
2022-09-15T17:39:58.260Z,0.17
2022-09-15T17:42:46.047Z,0.30
2022-09-15T17:45:34.180Z,0.20
2022-09-15T17:48:21.282Z,0.40
2022-09-15T17:51:08.836Z,0.15
2022-09-15T17:53:56.173Z,0.10
2022-09-15T17:56:44.729Z,0.25
2022-09-15T17:59:31.891Z,0.50
2022-09-15T18:02:19.863Z,0.20
2022-09-15T18:05:07.561Z,0.20
2022-09-15T18:07:55.604Z,0.32
2022-09-15T18:10:42.679Z,0.57
2022-09-15T18:13:31.403Z,0.28
2022-09-15T18:16:18.553Z,0.30
2022-09-15T18:19:05.715Z,0.20
2022-09-15T18:21:54.987Z,0.30
2022-09-15T18:24:41.997Z,0.30
2022-09-15T18:27:34.275Z,0.30
2022-09-15T18:30:23.854Z,0.20
2022-09-15T18:33:14.539Z,0.15
2022-09-15T18:36:01.814Z,0.33
2022-09-15T18:38:49.072Z,0.22
2022-09-15T18:41:37.630Z,0.40
2022-09-15T18:44:24.758Z,0.20
2022-09-15T18:47:13.659Z,0.20
2022-09-15T18:50:01.050Z,0.20
2022-09-15T18:52:49.786Z,0.10
2022-09-15T18:55:36.910Z,0.20
2022-09-15T18:58:50.319Z,0.10
2022-09-15T19:01:37.559Z,0.10
2022-09-15T19:04:31.035Z,0.20
2022-09-15T19:07:19.460Z,0.20
2022-09-15T19:10:07.009Z,0.10
2022-09-15T19:12:57.890Z,0.20
2022-09-15T19:15:45.109Z,0.20
2022-09-15T19:18:32.125Z,0.20
2022-09-15T19:21:25.193Z,0.15
2022-09-15T19:24:15.911Z,0.30
2022-09-15T19:27:02.775Z,0.20
2022-09-15T19:29:49.997Z,0.17
2022-09-15T19:32:36.810Z,0.20
2022-09-15T19:35:24.190Z,0.10
2022-09-15T19:38:14.067Z,0.10
2022-09-15T19:41:03.705Z,0.40
2022-09-15T19:43:50.919Z,0.20
2022-09-15T19:46:38.361Z,0.08
2022-09-15T19:49:25.763Z,0.15
2022-09-15T19:52:12.841Z,0.30
2022-09-15T19:55:01.629Z,0.30
2022-09-15T19:57:48.900Z,0.10
2022-09-15T20:00:36.098Z,0.10
2022-09-15T20:03:22.997Z,0.20
2022-09-15T20:06:10.824Z,0.30
2022-09-15T20:08:59.106Z,0.20
2022-09-15T20:11:47.660Z,0.10
2022-09-15T20:14:34.835Z,0.00
2022-09-15T20:17:22.222Z,0.10
2022-09-15T20:20:10.940Z,0.25
2022-09-15T20:23:01.245Z,0.40
2022-09-15T20:25:56.828Z,0.20
2022-09-15T20:28:45.308Z,0.03
2022-09-15T20:31:34.141Z,0.10
2022-09-15T20:34:20.887Z,0.10
2022-09-15T20:37:08.271Z,0.15
2022-09-15T20:39:55.546Z,0.10
2022-09-15T20:42:42.566Z,0.10
2022-09-15T20:45:33.937Z,0.20
2022-09-15T20:48:24.086Z,0.10
2022-09-15T20:51:13.226Z,0.20
2022-09-15T20:54:00.962Z,0.10
2022-09-15T20:56:48.138Z,0.10
2022-09-15T20:59:35.223Z,0.10
2022-09-15T21:02:23.726Z,0.15
2022-09-15T21:05:13.010Z,0.10
2022-09-15T21:08:00.499Z,0.10
2022-09-15T21:10:49.275Z,0.10
2022-09-15T21:13:37.172Z,0.10
2022-09-15T21:16:25.148Z,0.23
2022-09-15T21:19:13.560Z,0.20
2022-09-15T21:22:01.602Z,0.20
2022-09-15T21:24:48.357Z,0.10
2022-09-15T21:27:38.506Z,0.10
2022-09-15T21:30:25.615Z,0.03
2022-09-15T21:33:12.833Z,0.10
2022-09-15T21:36:11.241Z,0.10
2022-09-15T21:38:58.893Z,0.20
2022-09-15T21:41:46.336Z,0.10
2022-09-15T21:44:35.670Z,0.10
2022-09-15T21:47:22.598Z,0.20
2022-09-15T21:50:10.143Z,0.30
2022-09-15T21:52:58.647Z,0.10
2022-09-15T21:55:46.684Z,0.30
2022-09-15T21:58:39.154Z,0.10
2022-09-15T22:01:55.349Z,0.20
2022-09-15T22:04:42.350Z,0.10
2022-09-15T22:07:29.223Z,0.10
2022-09-15T22:10:17.601Z,0.00
2022-09-15T22:13:06.665Z,0.30
2022-09-15T22:15:53.779Z,0.20
2022-09-15T22:18:41.816Z,0.10
2022-09-15T22:21:31.182Z,0.10
2022-09-15T22:24:19.559Z,0.10
2022-09-15T22:27:10.823Z,0.20
2022-09-15T22:29:57.631Z,0.10
2022-09-15T22:32:44.823Z,0.03
2022-09-15T22:35:31.751Z,0.03
2022-09-15T22:38:18.901Z,0.10
2022-09-15T22:41:12.939Z,0.00
2022-09-15T22:44:02.617Z,0.10
2022-09-15T22:46:51.377Z,0.50
2022-09-15T22:49:41.782Z,0.08
2022-09-15T22:52:29.017Z,0.10
2022-09-15T22:55:16.531Z,0.03
2022-09-15T22:58:06.295Z,0.13
2022-09-15T23:00:54.969Z,0.10
2022-09-15T23:03:42.263Z,0.17
2022-09-15T23:06:30.621Z,0.10
2022-09-15T23:09:17.675Z,0.00
2022-09-15T23:12:05.071Z,0.10
2022-09-15T23:14:51.980Z,0.10
2022-09-15T23:17:40.668Z,0.10
2022-09-15T23:20:27.802Z,0.10
2022-09-15T23:23:14.673Z,0.20
2022-09-15T23:26:02.243Z,0.10
2022-09-15T23:28:51.374Z,0.17
2022-09-15T23:31:38.720Z,0.10
2022-09-15T23:34:27.170Z,0.30
2022-09-15T23:37:14.318Z,0.20
2022-09-15T23:40:01.252Z,0.10
2022-09-15T23:42:50.187Z,0.17
2022-09-15T23:45:37.254Z,0.13
2022-09-15T23:48:24.552Z,0.10
2022-09-15T23:51:13.210Z,0.10
2022-09-15T23:54:01.897Z,0.10
2022-09-15T23:56:49.029Z,0.00
2022-09-15T23:59:36.019Z,0.20
